Aeroporto :
LOGIN :

Iscrizione | Disclaimer

   EN    FR    IT 

 










Sommario :    VFR   VFR Marginale   IFR   IFR Intensivo   IFR Molto Intensivo
Visibilità : 
Base nubi : 
>= 8 km
>= 3000ft
5 / 8 km
1000 / 3000 ft
1500m / 5 km
500 / 1000 ft
800 / 1500m
200 / 500 ft
< 800m
< 200 ft
Simboli :   Temporali  Nebbia  Neve Forte  Precipitazioni Forti  Vento > 20 kt
SIGMETs :   Varie  Temporali  Ghiacco  Turbolenza  Onda orograficha  Ceneri Vulcaniche






- Altitudine del aeroporto : 45 ft
- Codice IATA : CEG


EGNR - Hawarden Chester

ULTIMO METAR :
  • 111950Z 27014G26KT 240V310 9999 -SHRA FEW016 SCT045 07/03 Q0999

METARs OBSOLETI :
  • 111920Z 28012G25KT 9999 FEW029 SCT035 07/02 Q0999
  • 111850Z 27012G22KT 9999 FEW029 SCT046 07/02 Q0999
  • 111820Z 28008G19KT 230V330 9999 FEW029 SCT048 07/02 Q0999
  • 111750Z 29014KT 250V330 9999 FEW029 07/02 Q0999
  • 111720Z 28014KT 9999 FEW020 07/02 Q0998

TAF TAF EGNR
Valido dal 11 a 18 ore il 11 a 21 ore UTC


111702Z 1118/1121 26014KT 9999 FEW012 SCT030
TEMPO 1118/1121 29020G32KT 6000 SHRA
PROB30
TEMPO 1118/1121 3000 +SHRAGS BKN012 BKN025CB



MetMap, La meteo Aeronautica in un colpo d'occhio ! - Copyright ORBIFLY Dicembre 2007 - Disclaimer

ORBIFLY MET'MAP TEAM :

Programmazione e sviluppo : Alexandra Zaïnal
Concezione e sviluppo : Baudouin d'Aumeries
Co-Programmazione e sviluppo : Marc-Olivier Méhu
Supporto tecnico e logistico : Manuel Goepfert
Aiuto per la traduzione : Arnaldo La Scala

Contatto : metmap@orbifly.com




FONTI E CREDITI :

   NOAA